sensor_id;sensor_type;location;lat;lon;timestamp;temperature;humidity
27226;DHT22;14732;51.074;3.788;2023-07-29T00:00:13;20.20;99.90
27226;DHT22;14732;51.074;3.788;2023-07-29T00:02:42;20.20;99.90
27226;DHT22;14732;51.074;3.788;2023-07-29T00:05:11;20.20;99.90
27226;DHT22;14732;51.074;3.788;2023-07-29T00:07:42;20.10;99.90
27226;DHT22;14732;51.074;3.788;2023-07-29T00:10:10;20.00;99.90
27226;DHT22;14732;51.074;3.788;2023-07-29T00:12:38;20.10;99.90
27226;DHT22;14732;51.074;3.788;2023-07-29T00:15:08;20.00;99.90
27226;DHT22;14732;51.074;3.788;2023-07-29T00:17:36;20.10;99.90
27226;DHT22;14732;51.074;3.788;2023-07-29T00:20:05;20.20;99.90
27226;DHT22;14732;51.074;3.788;2023-07-29T00:22:35;20.10;99.90
27226;DHT22;14732;51.074;3.788;2023-07-29T00:25:03;20.00;99.90
27226;DHT22;14732;51.074;3.788;2023-07-29T00:27:34;19.90;99.90
27226;DHT22;14732;51.074;3.788;2023-07-29T00:30:03;19.90;99.90
27226;DHT22;14732;51.074;3.788;2023-07-29T00:32:32;19.70;99.90
27226;DHT22;14732;51.074;3.788;2023-07-29T00:35:00;19.70;99.90
27226;DHT22;14732;51.074;3.788;2023-07-29T00:37:29;19.80;99.90
27226;DHT22;14732;51.074;3.788;2023-07-29T00:39:58;19.90;99.90
27226;DHT22;14732;51.074;3.788;2023-07-29T00:42:44;19.90;99.90
27226;DHT22;14732;51.074;3.788;2023-07-29T00:45:28;19.80;99.90
27226;DHT22;14732;51.074;3.788;2023-07-29T00:48:08;19.70;99.90
27226;DHT22;14732;51.074;3.788;2023-07-29T00:50:36;19.70;99.90
27226;DHT22;14732;51.074;3.788;2023-07-29T00:53:07;19.80;99.90
27226;DHT22;14732;51.074;3.788;2023-07-29T00:55:37;19.70;99.90
27226;DHT22;14732;51.074;3.788;2023-07-29T00:58:06;19.60;99.90
27226;DHT22;14732;51.074;3.788;2023-07-29T01:00:35;19.60;99.90
27226;DHT22;14732;51.074;3.788;2023-07-29T01:03:02;19.50;99.90
27226;DHT22;14732;51.074;3.788;2023-07-29T01:06:29;19.40;99.90
27226;DHT22;14732;51.074;3.788;2023-07-29T01:08:50;19.40;99.90
27226;DHT22;14732;51.074;3.788;2023-07-29T01:14:01;19.50;99.90
27226;DHT22;14732;51.074;3.788;2023-07-29T01:16:46;19.50;99.90
27226;DHT22;14732;51.074;3.788;2023-07-29T01:19:34;19.50;99.90
27226;DHT22;14732;51.074;3.788;2023-07-29T01:25:26;19.60;99.90
27226;DHT22;14732;51.074;3.788;2023-07-29T01:27:56;19.60;99.90
27226;DHT22;14732;51.074;3.788;2023-07-29T01:30:29;19.50;99.90
27226;DHT22;14732;51.074;3.788;2023-07-29T01:33:16;19.50;99.90
27226;DHT22;14732;51.074;3.788;2023-07-29T01:35:46;19.50;99.90
27226;DHT22;14732;51.074;3.788;2023-07-29T01:38:24;19.50;99.90
27226;DHT22;14732;51.074;3.788;2023-07-29T01:40:57;19.50;99.90
27226;DHT22;14732;51.074;3.788;2023-07-29T01:43:33;19.50;99.90
27226;DHT22;14732;51.074;3.788;2023-07-29T01:46:06;19.50;99.90
27226;DHT22;14732;51.074;3.788;2023-07-29T01:48:41;19.40;99.90
27226;DHT22;14732;51.074;3.788;2023-07-29T01:52:01;19.20;99.90
27226;DHT22;14732;51.074;3.788;2023-07-29T01:55:04;19.30;99.90
27226;DHT22;14732;51.074;3.788;2023-07-29T01:57:32;19.20;99.90
27226;DHT22;14732;51.074;3.788;2023-07-29T02:00:04;19.30;99.90
27226;DHT22;14732;51.074;3.788;2023-07-29T02:02:52;19.30;99.90
27226;DHT22;14732;51.074;3.788;2023-07-29T02:08:15;19.30;99.90
27226;DHT22;14732;51.074;3.788;2023-07-29T02:11:15;19.30;99.90
27226;DHT22;14732;51.074;3.788;2023-07-29T02:13:45;19.20;99.90
27226;DHT22;14732;51.074;3.788;2023-07-29T02:16:16;19.10;99.90
27226;DHT22;14732;51.074;3.788;2023-07-29T02:18:47;19.10;99.90
27226;DHT22;14732;51.074;3.788;2023-07-29T02:24:44;19.10;99.90
27226;DHT22;14732;51.074;3.788;2023-07-29T02:27:17;19.20;99.90
27226;DHT22;14732;51.074;3.788;2023-07-29T02:30:05;19.30;99.90
27226;DHT22;14732;51.074;3.788;2023-07-29T02:32:37;19.00;99.90
27226;DHT22;14732;51.074;3.788;2023-07-29T02:35:05;18.90;99.90
27226;DHT22;14732;51.074;3.788;2023-07-29T02:37:36;18.80;99.90
27226;DHT22;14732;51.074;3.788;2023-07-29T02:40:05;18.90;99.90
27226;DHT22;14732;51.074;3.788;2023-07-29T02:42:34;19.10;99.90
27226;DHT22;14732;51.074;3.788;2023-07-29T02:45:04;19.00;99.90
27226;DHT22;14732;51.074;3.788;2023-07-29T02:47:32;19.00;99.90
27226;DHT22;14732;51.074;3.788;2023-07-29T02:50:03;18.90;99.90
27226;DHT22;14732;51.074;3.788;2023-07-29T02:52:32;19.10;99.90
27226;DHT22;14732;51.074;3.788;2023-07-29T02:55:00;19.10;99.90
27226;DHT22;14732;51.074;3.788;2023-07-29T02:57:28;19.00;99.90
27226;DHT22;14732;51.074;3.788;2023-07-29T02:59:58;19.00;99.90
27226;DHT22;14732;51.074;3.788;2023-07-29T03:02:27;19.00;99.90
27226;DHT22;14732;51.074;3.788;2023-07-29T03:04:55;19.00;99.90
27226;DHT22;14732;51.074;3.788;2023-07-29T03:07:25;18.90;99.90
27226;DHT22;14732;51.074;3.788;2023-07-29T03:09:52;19.10;99.90
27226;DHT22;14732;51.074;3.788;2023-07-29T03:12:22;19.10;99.90
27226;DHT22;14732;51.074;3.788;2023-07-29T03:14:52;19.10;99.90
27226;DHT22;14732;51.074;3.788;2023-07-29T03:17:20;19.10;99.90
27226;DHT22;14732;51.074;3.788;2023-07-29T03:20:08;19.10;99.90
27226;DHT22;14732;51.074;3.788;2023-07-29T03:22:37;19.00;99.90
27226;DHT22;14732;51.074;3.788;2023-07-29T03:25:04;18.90;99.90
27226;DHT22;14732;51.074;3.788;2023-07-29T03:27:33;19.00;99.90
27226;DHT22;14732;51.074;3.788;2023-07-29T03:30:04;19.00;99.90
27226;DHT22;14732;51.074;3.788;2023-07-29T03:32:32;19.00;99.90
27226;DHT22;14732;51.074;3.788;2023-07-29T03:35:02;18.90;99.90
27226;DHT22;14732;51.074;3.788;2023-07-29T03:37:33;18.90;99.90
27226;DHT22;14732;51.074;3.788;2023-07-29T03:40:00;18.90;99.90
27226;DHT22;14732;51.074;3.788;2023-07-29T03:42:31;18.90;99.90
27226;DHT22;14732;51.074;3.788;2023-07-29T03:44:59;18.90;99.90
27226;DHT22;14732;51.074;3.788;2023-07-29T03:47:30;18.80;99.90
27226;DHT22;14732;51.074;3.788;2023-07-29T03:49:58;18.80;99.90
27226;DHT22;14732;51.074;3.788;2023-07-29T03:53:05;18.90;99.90
27226;DHT22;14732;51.074;3.788;2023-07-29T03:55:52;18.80;99.90
27226;DHT22;14732;51.074;3.788;2023-07-29T03:58:20;18.90;99.90
27226;DHT22;14732;51.074;3.788;2023-07-29T04:00:49;18.90;99.90
27226;DHT22;14732;51.074;3.788;2023-07-29T04:03:20;18.90;99.90
27226;DHT22;14732;51.074;3.788;2023-07-29T04:05:49;18.90;99.90
27226;DHT22;14732;51.074;3.788;2023-07-29T04:08:16;18.90;99.90
27226;DHT22;14732;51.074;3.788;2023-07-29T04:10:44;19.00;99.90
27226;DHT22;14732;51.074;3.788;2023-07-29T04:13:13;18.90;99.90
27226;DHT22;14732;51.074;3.788;2023-07-29T04:15:44;18.70;99.90
27226;DHT22;14732;51.074;3.788;2023-07-29T04:18:12;18.70;99.90
27226;DHT22;14732;51.074;3.788;2023-07-29T04:20:40;18.80;99.90
27226;DHT22;14732;51.074;3.788;2023-07-29T04:23:11;18.90;99.90
27226;DHT22;14732;51.074;3.788;2023-07-29T04:25:41;18.90;99.90
27226;DHT22;14732;51.074;3.788;2023-07-29T04:28:09;18.90;99.90
27226;DHT22;14732;51.074;3.788;2023-07-29T04:30:38;18.80;99.90
27226;DHT22;14732;51.074;3.788;2023-07-29T04:33:07;18.80;99.90
27226;DHT22;14732;51.074;3.788;2023-07-29T04:35:37;18.80;99.90
27226;DHT22;14732;51.074;3.788;2023-07-29T04:38:07;18.70;99.90
27226;DHT22;14732;51.074;3.788;2023-07-29T04:40:37;18.50;99.90
27226;DHT22;14732;51.074;3.788;2023-07-29T04:43:06;18.40;99.90
27226;DHT22;14732;51.074;3.788;2023-07-29T04:45:35;18.50;99.90
27226;DHT22;14732;51.074;3.788;2023-07-29T04:48:03;18.60;99.90
27226;DHT22;14732;51.074;3.788;2023-07-29T04:50:33;18.60;99.90
27226;DHT22;14732;51.074;3.788;2023-07-29T04:53:03;18.50;99.90
27226;DHT22;14732;51.074;3.788;2023-07-29T04:55:32;18.50;99.90
27226;DHT22;14732;51.074;3.788;2023-07-29T04:58:02;18.60;99.90
27226;DHT22;14732;51.074;3.788;2023-07-29T05:00:34;18.70;99.90
27226;DHT22;14732;51.074;3.788;2023-07-29T05:03:10;18.80;99.90
27226;DHT22;14732;51.074;3.788;2023-07-29T05:05:37;18.80;99.90
27226;DHT22;14732;51.074;3.788;2023-07-29T05:08:19;18.80;99.90
27226;DHT22;14732;51.074;3.788;2023-07-29T05:10:52;18.80;99.90
27226;DHT22;14732;51.074;3.788;2023-07-29T05:13:23;18.70;99.90
27226;DHT22;14732;51.074;3.788;2023-07-29T05:15:54;18.70;99.90
27226;DHT22;14732;51.074;3.788;2023-07-29T05:18:21;18.70;99.90
27226;DHT22;14732;51.074;3.788;2023-07-29T05:20:51;18.90;99.90
27226;DHT22;14732;51.074;3.788;2023-07-29T05:23:22;18.90;99.90
27226;DHT22;14732;51.074;3.788;2023-07-29T05:25:52;19.00;99.90
27226;DHT22;14732;51.074;3.788;2023-07-29T05:28:20;19.10;99.90
27226;DHT22;14732;51.074;3.788;2023-07-29T05:30:49;19.30;99.90
27226;DHT22;14732;51.074;3.788;2023-07-29T05:33:16;19.40;99.90
27226;DHT22;14732;51.074;3.788;2023-07-29T05:35:46;19.60;99.90
27226;DHT22;14732;51.074;3.788;2023-07-29T05:38:16;20.50;99.90
27226;DHT22;14732;51.074;3.788;2023-07-29T05:40:48;21.60;99.90
27226;DHT22;14732;51.074;3.788;2023-07-29T05:43:25;22.60;99.90
27226;DHT22;14732;51.074;3.788;2023-07-29T05:45:59;23.50;99.90
27226;DHT22;14732;51.074;3.788;2023-07-29T05:48:34;23.70;99.90
27226;DHT22;14732;51.074;3.788;2023-07-29T05:51:08;24.10;99.90
27226;DHT22;14732;51.074;3.788;2023-07-29T05:53:43;25.20;99.90
27226;DHT22;14732;51.074;3.788;2023-07-29T05:56:13;25.60;99.90
27226;DHT22;14732;51.074;3.788;2023-07-29T05:58:41;25.60;99.90
27226;DHT22;14732;51.074;3.788;2023-07-29T06:01:11;25.20;99.90
27226;DHT22;14732;51.074;3.788;2023-07-29T06:03:41;24.80;99.90
27226;DHT22;14732;51.074;3.788;2023-07-29T06:06:11;24.30;99.90
27226;DHT22;14732;51.074;3.788;2023-07-29T06:08:52;23.80;99.90
27226;DHT22;14732;51.074;3.788;2023-07-29T06:11:20;23.50;99.90
27226;DHT22;14732;51.074;3.788;2023-07-29T06:13:50;23.30;99.90
27226;DHT22;14732;51.074;3.788;2023-07-29T06:16:20;23.20;99.90
27226;DHT22;14732;51.074;3.788;2023-07-29T06:18:51;23.70;99.90
27226;DHT22;14732;51.074;3.788;2023-07-29T06:22:00;24.30;99.90
27226;DHT22;14732;51.074;3.788;2023-07-29T06:24:47;24.50;99.90
27226;DHT22;14732;51.074;3.788;2023-07-29T06:27:17;24.10;99.90
27226;DHT22;14732;51.074;3.788;2023-07-29T06:30:15;23.80;99.90
27226;DHT22;14732;51.074;3.788;2023-07-29T06:32:43;23.30;99.90
27226;DHT22;14732;51.074;3.788;2023-07-29T06:35:14;23.10;99.90
27226;DHT22;14732;51.074;3.788;2023-07-29T06:37:49;22.80;99.90
27226;DHT22;14732;51.074;3.788;2023-07-29T06:40:19;22.50;99.90
27226;DHT22;14732;51.074;3.788;2023-07-29T06:42:51;22.20;99.90
27226;DHT22;14732;51.074;3.788;2023-07-29T06:45:31;21.90;99.90
27226;DHT22;14732;51.074;3.788;2023-07-29T06:47:59;21.60;99.90
27226;DHT22;14732;51.074;3.788;2023-07-29T06:50:35;21.50;99.90
27226;DHT22;14732;51.074;3.788;2023-07-29T06:53:13;21.50;99.90
27226;DHT22;14732;51.074;3.788;2023-07-29T06:55:42;21.50;99.90
27226;DHT22;14732;51.074;3.788;2023-07-29T06:58:15;21.70;99.90
27226;DHT22;14732;51.074;3.788;2023-07-29T07:00:44;21.80;99.90
27226;DHT22;14732;51.074;3.788;2023-07-29T07:03:14;22.20;99.90
27226;DHT22;14732;51.074;3.788;2023-07-29T07:05:55;22.30;99.90
27226;DHT22;14732;51.074;3.788;2023-07-29T07:08:27;22.50;99.90
27226;DHT22;14732;51.074;3.788;2023-07-29T07:11:10;22.50;99.90
27226;DHT22;14732;51.074;3.788;2023-07-29T07:13:39;22.40;99.90
27226;DHT22;14732;51.074;3.788;2023-07-29T07:16:06;22.30;99.90
27226;DHT22;14732;51.074;3.788;2023-07-29T07:18:34;22.30;99.90
27226;DHT22;14732;51.074;3.788;2023-07-29T07:21:12;22.60;99.90
27226;DHT22;14732;51.074;3.788;2023-07-29T07:23:49;22.60;99.90
27226;DHT22;14732;51.074;3.788;2023-07-29T07:26:16;22.80;99.90
27226;DHT22;14732;51.074;3.788;2023-07-29T07:28:47;22.60;99.90
27226;DHT22;14732;51.074;3.788;2023-07-29T07:31:15;22.80;99.90
27226;DHT22;14732;51.074;3.788;2023-07-29T07:33:44;23.00;99.90
27226;DHT22;14732;51.074;3.788;2023-07-29T07:40:06;23.30;99.90
27226;DHT22;14732;51.074;3.788;2023-07-29T07:42:37;23.40;99.90
27226;DHT22;14732;51.074;3.788;2023-07-29T07:45:06;23.60;99.90
27226;DHT22;14732;51.074;3.788;2023-07-29T07:47:35;23.90;99.90
27226;DHT22;14732;51.074;3.788;2023-07-29T07:50:03;24.00;99.90
27226;DHT22;14732;51.074;3.788;2023-07-29T07:52:33;24.00;99.90
27226;DHT22;14732;51.074;3.788;2023-07-29T07:55:02;24.10;99.90
27226;DHT22;14732;51.074;3.788;2023-07-29T07:57:31;24.40;99.90
27226;DHT22;14732;51.074;3.788;2023-07-29T08:00:09;24.90;99.90
27226;DHT22;14732;51.074;3.788;2023-07-29T08:02:38;25.20;99.90
27226;DHT22;14732;51.074;3.788;2023-07-29T08:05:08;25.50;99.90
27226;DHT22;14732;51.074;3.788;2023-07-29T08:08:02;25.90;99.90
27226;DHT22;14732;51.074;3.788;2023-07-29T08:10:32;26.10;99.90
27226;DHT22;14732;51.074;3.788;2023-07-29T08:13:00;26.00;99.90
27226;DHT22;14732;51.074;3.788;2023-07-29T08:15:28;25.80;99.90
27226;DHT22;14732;51.074;3.788;2023-07-29T08:17:59;25.80;99.90
27226;DHT22;14732;51.074;3.788;2023-07-29T08:20:30;25.40;99.90
27226;DHT22;14732;51.074;3.788;2023-07-29T08:23:00;25.50;99.90
27226;DHT22;14732;51.074;3.788;2023-07-29T08:25:29;25.60;99.90
27226;DHT22;14732;51.074;3.788;2023-07-29T08:28:00;25.80;99.90
27226;DHT22;14732;51.074;3.788;2023-07-29T08:30:33;26.00;99.90
27226;DHT22;14732;51.074;3.788;2023-07-29T08:33:03;25.70;99.90
27226;DHT22;14732;51.074;3.788;2023-07-29T08:35:47;25.70;99.90
27226;DHT22;14732;51.074;3.788;2023-07-29T08:38:15;26.20;99.90
27226;DHT22;14732;51.074;3.788;2023-07-29T08:40:58;26.60;99.90
27226;DHT22;14732;51.074;3.788;2023-07-29T08:43:39;26.70;99.90
27226;DHT22;14732;51.074;3.788;2023-07-29T08:46:12;26.40;99.90
27226;DHT22;14732;51.074;3.788;2023-07-29T08:48:45;26.60;99.90
27226;DHT22;14732;51.074;3.788;2023-07-29T08:51:17;26.70;99.90
27226;DHT22;14732;51.074;3.788;2023-07-29T08:53:53;26.50;99.90
27226;DHT22;14732;51.074;3.788;2023-07-29T08:56:21;26.50;99.90
27226;DHT22;14732;51.074;3.788;2023-07-29T08:58:55;26.50;99.90
27226;DHT22;14732;51.074;3.788;2023-07-29T09:01:30;26.40;99.90
27226;DHT22;14732;51.074;3.788;2023-07-29T09:04:03;26.10;99.90
27226;DHT22;14732;51.074;3.788;2023-07-29T09:07:15;25.80;99.90
27226;DHT22;14732;51.074;3.788;2023-07-29T09:09:45;25.20;99.90
27226;DHT22;14732;51.074;3.788;2023-07-29T09:12:14;24.80;99.90
27226;DHT22;14732;51.074;3.788;2023-07-29T09:14:44;24.50;99.90
27226;DHT22;14732;51.074;3.788;2023-07-29T09:17:13;24.30;99.90
27226;DHT22;14732;51.074;3.788;2023-07-29T09:19:46;24.10;99.90
27226;DHT22;14732;51.074;3.788;2023-07-29T09:22:35;24.00;99.90
27226;DHT22;14732;51.074;3.788;2023-07-29T09:25:04;24.00;99.90
27226;DHT22;14732;51.074;3.788;2023-07-29T09:27:33;23.90;99.90
27226;DHT22;14732;51.074;3.788;2023-07-29T09:30:05;23.70;99.90
27226;DHT22;14732;51.074;3.788;2023-07-29T09:32:33;23.60;99.90
27226;DHT22;14732;51.074;3.788;2023-07-29T09:35:01;23.50;99.90
27226;DHT22;14732;51.074;3.788;2023-07-29T09:37:33;23.50;99.90
27226;DHT22;14732;51.074;3.788;2023-07-29T09:40:02;23.60;99.90
27226;DHT22;14732;51.074;3.788;2023-07-29T09:42:29;23.70;99.90
27226;DHT22;14732;51.074;3.788;2023-07-29T09:44:57;23.70;99.90
27226;DHT22;14732;51.074;3.788;2023-07-29T09:47:26;23.80;99.90
27226;DHT22;14732;51.074;3.788;2023-07-29T09:49:55;23.60;99.90
27226;DHT22;14732;51.074;3.788;2023-07-29T09:52:24;23.70;99.90
27226;DHT22;14732;51.074;3.788;2023-07-29T09:54:57;23.70;99.90
27226;DHT22;14732;51.074;3.788;2023-07-29T09:57:29;23.60;99.90
27226;DHT22;14732;51.074;3.788;2023-07-29T10:00:01;23.70;99.90
27226;DHT22;14732;51.074;3.788;2023-07-29T10:02:39;23.70;99.90
27226;DHT22;14732;51.074;3.788;2023-07-29T10:05:13;23.40;99.90
27226;DHT22;14732;51.074;3.788;2023-07-29T10:07:44;23.30;99.90
27226;DHT22;14732;51.074;3.788;2023-07-29T10:10:24;23.50;99.90
27226;DHT22;14732;51.074;3.788;2023-07-29T10:12:58;23.90;99.90
27226;DHT22;14732;51.074;3.788;2023-07-29T10:15:26;24.50;99.90
27226;DHT22;14732;51.074;3.788;2023-07-29T10:17:55;24.80;99.90
27226;DHT22;14732;51.074;3.788;2023-07-29T10:20:23;25.30;99.90
27226;DHT22;14732;51.074;3.788;2023-07-29T10:22:53;25.30;99.90
27226;DHT22;14732;51.074;3.788;2023-07-29T10:25:26;25.10;99.90
27226;DHT22;14732;51.074;3.788;2023-07-29T10:28:05;25.10;99.90
27226;DHT22;14732;51.074;3.788;2023-07-29T10:30:44;24.90;99.90
27226;DHT22;14732;51.074;3.788;2023-07-29T10:33:15;24.70;99.90
27226;DHT22;14732;51.074;3.788;2023-07-29T10:35:48;25.00;99.90
27226;DHT22;14732;51.074;3.788;2023-07-29T10:38:17;25.00;99.90
27226;DHT22;14732;51.074;3.788;2023-07-29T10:40:57;24.70;99.90
27226;DHT22;14732;51.074;3.788;2023-07-29T10:43:32;24.50;99.90
27226;DHT22;14732;51.074;3.788;2023-07-29T10:46:20;24.30;99.90
27226;DHT22;14732;51.074;3.788;2023-07-29T10:48:58;23.80;99.90
27226;DHT22;14732;51.074;3.788;2023-07-29T10:52:48;22.90;99.90
27226;DHT22;14732;51.074;3.788;2023-07-29T10:54:59;22.10;99.90
27226;DHT22;14732;51.074;3.788;2023-07-29T10:57:41;21.70;99.90
27226;DHT22;14732;51.074;3.788;2023-07-29T11:00:11;21.60;99.90
27226;DHT22;14732;51.074;3.788;2023-07-29T11:03:11;21.70;99.90
27226;DHT22;14732;51.074;3.788;2023-07-29T11:05:47;22.00;99.90
27226;DHT22;14732;51.074;3.788;2023-07-29T11:08:28;22.50;99.90
27226;DHT22;14732;51.074;3.788;2023-07-29T11:11:07;22.90;99.90
27226;DHT22;14732;51.074;3.788;2023-07-29T11:13:38;23.40;99.90
27226;DHT22;14732;51.074;3.788;2023-07-29T11:16:10;23.70;99.90
27226;DHT22;14732;51.074;3.788;2023-07-29T11:18:39;23.80;99.90
27226;DHT22;14732;51.074;3.788;2023-07-29T11:21:09;24.10;99.90
27226;DHT22;14732;51.074;3.788;2023-07-29T11:23:42;24.40;99.90
27226;DHT22;14732;51.074;3.788;2023-07-29T11:26:13;24.80;99.90
27226;DHT22;14732;51.074;3.788;2023-07-29T11:28:44;24.90;99.90
27226;DHT22;14732;51.074;3.788;2023-07-29T11:31:15;25.10;99.90
27226;DHT22;14732;51.074;3.788;2023-07-29T11:33:47;25.20;99.90
27226;DHT22;14732;51.074;3.788;2023-07-29T11:39:47;25.70;99.90
27226;DHT22;14732;51.074;3.788;2023-07-29T11:42:17;25.70;99.90
27226;DHT22;14732;51.074;3.788;2023-07-29T11:45:21;25.70;99.90
27226;DHT22;14732;51.074;3.788;2023-07-29T11:47:58;25.50;99.90
27226;DHT22;14732;51.074;3.788;2023-07-29T11:50:26;25.60;99.90
27226;DHT22;14732;51.074;3.788;2023-07-29T11:56:45;25.50;99.90
27226;DHT22;14732;51.074;3.788;2023-07-29T11:59:14;25.40;99.90
27226;DHT22;14732;51.074;3.788;2023-07-29T12:01:44;25.00;99.90
27226;DHT22;14732;51.074;3.788;2023-07-29T12:04:12;25.00;99.90
27226;DHT22;14732;51.074;3.788;2023-07-29T12:10:27;25.10;99.90
27226;DHT22;14732;51.074;3.788;2023-07-29T12:13:03;25.20;99.90
27226;DHT22;14732;51.074;3.788;2023-07-29T12:15:33;25.30;99.90
27226;DHT22;14732;51.074;3.788;2023-07-29T12:18:29;25.20;99.90
27226;DHT22;14732;51.074;3.788;2023-07-29T12:21:18;25.00;99.90
27226;DHT22;14732;51.074;3.788;2023-07-29T12:24:26;25.10;99.90
27226;DHT22;14732;51.074;3.788;2023-07-29T12:27:04;25.40;99.90
27226;DHT22;14732;51.074;3.788;2023-07-29T12:29:42;25.50;99.90
27226;DHT22;14732;51.074;3.788;2023-07-29T12:32:11;25.20;99.90
27226;DHT22;14732;51.074;3.788;2023-07-29T12:34:40;25.00;99.90
27226;DHT22;14732;51.074;3.788;2023-07-29T12:37:15;25.00;99.90
27226;DHT22;14732;51.074;3.788;2023-07-29T12:39:44;25.30;99.90
27226;DHT22;14732;51.074;3.788;2023-07-29T12:42:15;25.60;99.90
27226;DHT22;14732;51.074;3.788;2023-07-29T12:44:44;25.90;99.90
27226;DHT22;14732;51.074;3.788;2023-07-29T12:47:16;26.20;99.90
27226;DHT22;14732;51.074;3.788;2023-07-29T12:49:45;26.50;99.90
27226;DHT22;14732;51.074;3.788;2023-07-29T12:52:15;26.60;99.90
27226;DHT22;14732;51.074;3.788;2023-07-29T12:54:45;26.70;99.90
27226;DHT22;14732;51.074;3.788;2023-07-29T12:57:15;26.80;99.90
27226;DHT22;14732;51.074;3.788;2023-07-29T12:59:47;26.70;99.90
27226;DHT22;14732;51.074;3.788;2023-07-29T13:02:15;26.40;99.90
27226;DHT22;14732;51.074;3.788;2023-07-29T13:04:43;26.30;99.90
27226;DHT22;14732;51.074;3.788;2023-07-29T13:07:21;26.20;99.90
27226;DHT22;14732;51.074;3.788;2023-07-29T13:10:14;26.10;99.90
27226;DHT22;14732;51.074;3.788;2023-07-29T13:12:45;26.50;99.90
27226;DHT22;14732;51.074;3.788;2023-07-29T13:15:16;26.60;99.90
27226;DHT22;14732;51.074;3.788;2023-07-29T13:17:45;26.20;99.90
27226;DHT22;14732;51.074;3.788;2023-07-29T13:20:13;26.30;99.90
27226;DHT22;14732;51.074;3.788;2023-07-29T13:22:44;26.40;99.90
27226;DHT22;14732;51.074;3.788;2023-07-29T13:25:16;26.60;99.90
27226;DHT22;14732;51.074;3.788;2023-07-29T13:27:48;26.60;99.90
27226;DHT22;14732;51.074;3.788;2023-07-29T13:30:17;26.50;99.90
27226;DHT22;14732;51.074;3.788;2023-07-29T13:32:49;26.20;99.90
27226;DHT22;14732;51.074;3.788;2023-07-29T13:35:22;25.90;99.90
27226;DHT22;14732;51.074;3.788;2023-07-29T13:37:55;25.70;99.90
27226;DHT22;14732;51.074;3.788;2023-07-29T13:40:26;25.50;99.90
27226;DHT22;14732;51.074;3.788;2023-07-29T13:42:57;25.00;99.90
27226;DHT22;14732;51.074;3.788;2023-07-29T13:48:31;24.00;99.90
27226;DHT22;14732;51.074;3.788;2023-07-29T13:51:01;23.70;99.90
27226;DHT22;14732;51.074;3.788;2023-07-29T13:53:34;23.50;99.90
27226;DHT22;14732;51.074;3.788;2023-07-29T13:56:05;23.70;99.90
27226;DHT22;14732;51.074;3.788;2023-07-29T13:58:34;23.90;99.90
27226;DHT22;14732;51.074;3.788;2023-07-29T14:01:03;24.10;99.90
27226;DHT22;14732;51.074;3.788;2023-07-29T14:03:32;24.30;99.90
27226;DHT22;14732;51.074;3.788;2023-07-29T14:06:00;24.30;99.90
27226;DHT22;14732;51.074;3.788;2023-07-29T14:08:41;24.50;99.90
27226;DHT22;14732;51.074;3.788;2023-07-29T14:11:12;24.60;99.90
27226;DHT22;14732;51.074;3.788;2023-07-29T14:13:41;24.60;99.90
27226;DHT22;14732;51.074;3.788;2023-07-29T14:16:09;24.80;99.90
27226;DHT22;14732;51.074;3.788;2023-07-29T14:22:23;24.70;99.90
27226;DHT22;14732;51.074;3.788;2023-07-29T14:24:55;24.30;99.90
27226;DHT22;14732;51.074;3.788;2023-07-29T14:27:24;24.30;99.90
27226;DHT22;14732;51.074;3.788;2023-07-29T14:29:55;24.40;99.90
27226;DHT22;14732;51.074;3.788;2023-07-29T14:32:25;24.30;99.90
27226;DHT22;14732;51.074;3.788;2023-07-29T14:34:55;24.30;99.90
27226;DHT22;14732;51.074;3.788;2023-07-29T14:37:57;24.20;99.90
27226;DHT22;14732;51.074;3.788;2023-07-29T14:40:27;24.10;99.90
27226;DHT22;14732;51.074;3.788;2023-07-29T14:42:57;24.20;99.90
27226;DHT22;14732;51.074;3.788;2023-07-29T14:45:32;24.30;99.90
27226;DHT22;14732;51.074;3.788;2023-07-29T14:48:10;24.40;99.90
27226;DHT22;14732;51.074;3.788;2023-07-29T14:50:39;24.30;99.90
27226;DHT22;14732;51.074;3.788;2023-07-29T14:53:10;24.30;99.90
27226;DHT22;14732;51.074;3.788;2023-07-29T14:55:39;24.30;99.90
27226;DHT22;14732;51.074;3.788;2023-07-29T14:58:15;24.30;99.90
27226;DHT22;14732;51.074;3.788;2023-07-29T15:00:44;24.30;99.90
27226;DHT22;14732;51.074;3.788;2023-07-29T15:03:16;24.30;99.90
27226;DHT22;14732;51.074;3.788;2023-07-29T15:05:44;24.60;99.90
27226;DHT22;14732;51.074;3.788;2023-07-29T15:08:12;24.70;99.90
27226;DHT22;14732;51.074;3.788;2023-07-29T15:10:46;24.60;99.90
27226;DHT22;14732;51.074;3.788;2023-07-29T15:13:22;24.60;99.90
27226;DHT22;14732;51.074;3.788;2023-07-29T15:16:03;24.50;99.90
27226;DHT22;14732;51.074;3.788;2023-07-29T15:18:33;24.40;99.90
27226;DHT22;14732;51.074;3.788;2023-07-29T15:21:03;24.50;99.90
27226;DHT22;14732;51.074;3.788;2023-07-29T15:23:43;24.50;99.90
27226;DHT22;14732;51.074;3.788;2023-07-29T15:26:15;24.40;99.90
27226;DHT22;14732;51.074;3.788;2023-07-29T15:28:43;24.50;99.90
27226;DHT22;14732;51.074;3.788;2023-07-29T15:31:12;24.70;99.90
27226;DHT22;14732;51.074;3.788;2023-07-29T15:33:42;24.60;99.90
27226;DHT22;14732;51.074;3.788;2023-07-29T15:36:10;24.40;99.90
27226;DHT22;14732;51.074;3.788;2023-07-29T15:38:44;24.20;99.90
27226;DHT22;14732;51.074;3.788;2023-07-29T15:41:14;24.20;99.90
27226;DHT22;14732;51.074;3.788;2023-07-29T15:43:43;24.20;99.90
27226;DHT22;14732;51.074;3.788;2023-07-29T15:46:13;24.40;99.90
27226;DHT22;14732;51.074;3.788;2023-07-29T15:48:41;24.70;99.90
27226;DHT22;14732;51.074;3.788;2023-07-29T15:51:10;24.80;99.90
27226;DHT22;14732;51.074;3.788;2023-07-29T15:53:38;25.00;99.90
27226;DHT22;14732;51.074;3.788;2023-07-29T15:56:06;24.80;99.90
27226;DHT22;14732;51.074;3.788;2023-07-29T15:58:35;24.70;99.90
27226;DHT22;14732;51.074;3.788;2023-07-29T16:01:05;24.60;99.90
27226;DHT22;14732;51.074;3.788;2023-07-29T16:03:34;24.50;99.90
27226;DHT22;14732;51.074;3.788;2023-07-29T16:06:06;24.40;99.90
27226;DHT22;14732;51.074;3.788;2023-07-29T16:08:35;24.20;99.90
27226;DHT22;14732;51.074;3.788;2023-07-29T16:11:04;24.10;99.90
27226;DHT22;14732;51.074;3.788;2023-07-29T16:13:32;24.00;99.90
27226;DHT22;14732;51.074;3.788;2023-07-29T16:16:01;24.20;99.90
27226;DHT22;14732;51.074;3.788;2023-07-29T16:18:31;24.30;99.90
27226;DHT22;14732;51.074;3.788;2023-07-29T16:20:59;24.20;99.90
27226;DHT22;14732;51.074;3.788;2023-07-29T16:23:38;24.10;99.90
27226;DHT22;14732;51.074;3.788;2023-07-29T16:26:09;24.20;99.90
27226;DHT22;14732;51.074;3.788;2023-07-29T16:28:39;24.00;99.90
27226;DHT22;14732;51.074;3.788;2023-07-29T16:31:11;24.00;99.90
27226;DHT22;14732;51.074;3.788;2023-07-29T16:33:41;24.00;99.90
27226;DHT22;14732;51.074;3.788;2023-07-29T16:36:10;24.00;99.90
27226;DHT22;14732;51.074;3.788;2023-07-29T16:38:39;24.10;99.90